sensor_id;sensor_type;location;lat;lon;timestamp;pressure;altitude;pressure_sealevel;temperature;humidity
36454;BME280;22478;51.740;-1.314;2023-01-28T00:02:06;101920.59;;;-0.62;96.76
36454;BME280;22478;51.740;-1.314;2023-01-28T00:04:34;101912.74;;;1.92;82.24
36454;BME280;22478;51.740;-1.314;2023-01-28T00:07:01;101913.45;;;2.16;75.45
36454;BME280;22478;51.740;-1.314;2023-01-28T00:09:28;101918.49;;;-1.01;88.65
36454;BME280;22478;51.740;-1.314;2023-01-28T00:11:55;101912.17;;;1.49;78.40
36454;BME280;22478;51.740;-1.314;2023-01-28T00:14:22;101915.84;;;-0.04;85.47
36454;BME280;22478;51.740;-1.314;2023-01-28T00:16:50;101914.66;;;-1.51;92.09
36454;BME280;22478;51.740;-1.314;2023-01-28T00:19:17;101902.16;;;0.17;84.88
36454;BME280;22478;51.740;-1.314;2023-01-28T00:21:44;101908.89;;;0.56;81.33
36454;BME280;22478;51.740;-1.314;2023-01-28T00:24:12;101914.56;;;-0.38;85.82
36454;BME280;22478;51.740;-1.314;2023-01-28T00:26:39;101920.77;;;-1.63;91.78
36454;BME280;22478;51.740;-1.314;2023-01-28T00:29:07;101928.48;;;-4.55;100.00
36454;BME280;22478;51.740;-1.314;2023-01-28T00:31:34;101929.84;;;-2.65;100.00
36454;BME280;22478;51.740;-1.314;2023-01-28T00:34:02;101921.14;;;-0.24;90.94
36454;BME280;22478;51.740;-1.314;2023-01-28T00:36:29;101932.67;;;-2.17;100.00
36454;BME280;22478;51.740;-1.314;2023-01-28T00:38:58;101926.48;;;-1.23;95.74
36454;BME280;22478;51.740;-1.314;2023-01-28T00:41:27;101926.58;;;-2.34;100.00
36454;BME280;22478;51.740;-1.314;2023-01-28T00:43:54;101929.27;;;-2.90;100.00
36454;BME280;22478;51.740;-1.314;2023-01-28T00:46:22;101926.95;;;-3.16;100.00
36454;BME280;22478;51.740;-1.314;2023-01-28T00:48:49;101928.97;;;-4.11;100.00
36454;BME280;22478;51.740;-1.314;2023-01-28T00:51:17;101923.91;;;-1.75;100.00
36454;BME280;22478;51.740;-1.314;2023-01-28T00:53:45;101926.63;;;-2.26;100.00
36454;BME280;22478;51.740;-1.314;2023-01-28T00:56:15;101920.92;;;-1.80;100.00
36454;BME280;22478;51.740;-1.314;2023-01-28T00:58:43;101926.03;;;-3.64;100.00
36454;BME280;22478;51.740;-1.314;2023-01-28T01:01:13;101928.40;;;-2.80;100.00
36454;BME280;22478;51.740;-1.314;2023-01-28T01:03:41;101921.24;;;-2.18;100.00
36454;BME280;22478;51.740;-1.314;2023-01-28T01:06:10;101918.59;;;-1.32;96.46
36454;BME280;22478;51.740;-1.314;2023-01-28T01:08:37;101917.49;;;-1.52;100.00
36454;BME280;22478;51.740;-1.314;2023-01-28T01:11:06;101921.31;;;-4.14;100.00
36454;BME280;22478;51.740;-1.314;2023-01-28T01:13:33;101926.87;;;-2.37;100.00
36454;BME280;22478;51.740;-1.314;2023-01-28T01:16:02;101929.82;;;-4.19;100.00
36454;BME280;22478;51.740;-1.314;2023-01-28T01:18:29;101925.77;;;-2.73;100.00
36454;BME280;22478;51.740;-1.314;2023-01-28T01:20:57;101915.43;;;-0.88;91.95
36454;BME280;22478;51.740;-1.314;2023-01-28T01:23:25;101911.65;;;-1.29;93.02
36454;BME280;22478;51.740;-1.314;2023-01-28T01:25:53;101902.32;;;-0.96;92.00
36454;BME280;22478;51.740;-1.314;2023-01-28T01:28:20;101893.51;;;0.48;82.93
36454;BME280;22478;51.740;-1.314;2023-01-28T01:30:48;101893.88;;;-1.99;90.11
36454;BME280;22478;51.740;-1.314;2023-01-28T01:33:16;101886.25;;;-0.37;87.00
36454;BME280;22478;51.740;-1.314;2023-01-28T01:35:43;101881.66;;;2.46;75.64
36454;BME280;22478;51.740;-1.314;2023-01-28T01:38:10;101877.63;;;2.54;73.11
36454;BME280;22478;51.740;-1.314;2023-01-28T01:40:37;101870.10;;;2.02;74.87
36454;BME280;22478;51.740;-1.314;2023-01-28T01:43:15;101873.90;;;-0.42;80.41
36454;BME280;22478;51.740;-1.314;2023-01-28T01:45:43;101874.66;;;0.79;84.60
36454;BME280;22478;51.740;-1.314;2023-01-28T01:48:16;101878.21;;;0.55;79.15
36454;BME280;22478;51.740;-1.314;2023-01-28T01:50:50;101882.02;;;0.70;78.26
36454;BME280;22478;51.740;-1.314;2023-01-28T01:53:22;101878.29;;;3.18;68.81
36454;BME280;22478;51.740;-1.314;2023-01-28T01:55:53;101879.42;;;3.31;68.46
36454;BME280;22478;51.740;-1.314;2023-01-28T01:58:27;101878.74;;;3.25;69.35
36454;BME280;22478;51.740;-1.314;2023-01-28T02:00:55;101880.04;;;2.49;70.20
36454;BME280;22478;51.740;-1.314;2023-01-28T02:03:27;101892.82;;;-1.52;78.90
36454;BME280;22478;51.740;-1.314;2023-01-28T02:05:55;101892.03;;;1.45;72.57
36454;BME280;22478;51.740;-1.314;2023-01-28T02:08:22;101877.54;;;3.12;67.38
36454;BME280;22478;51.740;-1.314;2023-01-28T02:10:52;101881.24;;;3.12;67.71
36454;BME280;22478;51.740;-1.314;2023-01-28T02:13:23;101884.27;;;3.77;65.53
36454;BME280;22478;51.740;-1.314;2023-01-28T02:15:51;101879.39;;;3.63;62.25
36454;BME280;22478;51.740;-1.314;2023-01-28T02:18:19;101875.80;;;3.84;62.43
36454;BME280;22478;51.740;-1.314;2023-01-28T02:21:07;101882.86;;;2.76;66.23
36454;BME280;22478;51.740;-1.314;2023-01-28T02:23:50;101888.08;;;2.64;66.17
36454;BME280;22478;51.740;-1.314;2023-01-28T02:26:29;101881.12;;;3.77;63.77
36454;BME280;22478;51.740;-1.314;2023-01-28T02:29:07;101879.72;;;3.22;63.42
36454;BME280;22478;51.740;-1.314;2023-01-28T02:31:42;101885.53;;;4.24;64.41
36454;BME280;22478;51.740;-1.314;2023-01-28T02:34:17;101885.94;;;2.33;67.57
36454;BME280;22478;51.740;-1.314;2023-01-28T02:36:50;101893.60;;;2.02;67.60
36454;BME280;22478;51.740;-1.314;2023-01-28T02:39:22;101910.74;;;-1.77;81.12
36454;BME280;22478;51.740;-1.314;2023-01-28T02:41:54;101913.24;;;-1.23;87.19
36454;BME280;22478;51.740;-1.314;2023-01-28T02:44:23;101911.43;;;-0.05;82.98
36454;BME280;22478;51.740;-1.314;2023-01-28T02:46:51;101908.66;;;-0.23;80.57
36454;BME280;22478;51.740;-1.314;2023-01-28T02:49:23;101911.85;;;2.70;71.26
36454;BME280;22478;51.740;-1.314;2023-01-28T02:52:05;101912.67;;;1.64;74.24
36454;BME280;22478;51.740;-1.314;2023-01-28T02:54:41;101912.45;;;0.28;80.12
36454;BME280;22478;51.740;-1.314;2023-01-28T02:57:18;101915.74;;;1.24;78.11
36454;BME280;22478;51.740;-1.314;2023-01-28T03:00:00;101915.39;;;0.78;79.57
36454;BME280;22478;51.740;-1.314;2023-01-28T03:02:34;101914.81;;;0.42;83.45
36454;BME280;22478;51.740;-1.314;2023-01-28T03:05:07;101910.43;;;-0.39;81.53
36454;BME280;22478;51.740;-1.314;2023-01-28T03:07:38;101917.82;;;-0.74;84.76
36454;BME280;22478;51.740;-1.314;2023-01-28T03:10:09;101920.93;;;1.16;79.93
36454;BME280;22478;51.740;-1.314;2023-01-28T03:12:41;101920.87;;;0.95;85.33
36454;BME280;22478;51.740;-1.314;2023-01-28T03:15:13;101919.78;;;0.81;74.70
36454;BME280;22478;51.740;-1.314;2023-01-28T03:17:43;101915.66;;;1.29;76.27
36454;BME280;22478;51.740;-1.314;2023-01-28T03:20:12;101920.07;;;-0.23;79.58
36454;BME280;22478;51.740;-1.314;2023-01-28T03:22:44;101916.28;;;0.77;76.11
36454;BME280;22478;51.740;-1.314;2023-01-28T03:25:13;101922.99;;;2.62;68.50
36454;BME280;22478;51.740;-1.314;2023-01-28T03:27:46;101927.36;;;0.42;74.92
36454;BME280;22478;51.740;-1.314;2023-01-28T03:30:19;101924.54;;;0.39;83.19
36454;BME280;22478;51.740;-1.314;2023-01-28T03:32:48;101915.27;;;2.34;72.77
36454;BME280;22478;51.740;-1.314;2023-01-28T03:35:19;101913.10;;;2.75;70.35
36454;BME280;22478;51.740;-1.314;2023-01-28T03:37:48;101909.80;;;2.90;67.16
36454;BME280;22478;51.740;-1.314;2023-01-28T03:40:16;101898.02;;;2.67;66.88
36454;BME280;22478;51.740;-1.314;2023-01-28T03:42:44;101893.13;;;3.36;64.95
36454;BME280;22478;51.740;-1.314;2023-01-28T03:45:12;101894.36;;;2.82;67.21
36454;BME280;22478;51.740;-1.314;2023-01-28T03:47:39;101897.51;;;3.62;65.27
36454;BME280;22478;51.740;-1.314;2023-01-28T03:50:07;101895.27;;;3.65;65.70
36454;BME280;22478;51.740;-1.314;2023-01-28T03:52:35;101892.12;;;3.09;64.70
36454;BME280;22478;51.740;-1.314;2023-01-28T03:55:02;101897.83;;;1.71;69.60
36454;BME280;22478;51.740;-1.314;2023-01-28T03:57:29;101891.91;;;3.03;65.53
36454;BME280;22478;51.740;-1.314;2023-01-28T03:59:56;101888.87;;;3.72;63.42
36454;BME280;22478;51.740;-1.314;2023-01-28T04:02:24;101887.25;;;4.82;61.12
36454;BME280;22478;51.740;-1.314;2023-01-28T04:04:51;101880.26;;;4.80;62.22
36454;BME280;22478;51.740;-1.314;2023-01-28T04:07:19;101870.08;;;4.26;61.23
36454;BME280;22478;51.740;-1.314;2023-01-28T04:09:46;101878.38;;;3.71;62.87
36454;BME280;22478;51.740;-1.314;2023-01-28T04:12:13;101881.81;;;3.83;63.87
36454;BME280;22478;51.740;-1.314;2023-01-28T04:14:41;101889.81;;;2.91;65.02
36454;BME280;22478;51.740;-1.314;2023-01-28T04:17:08;101887.09;;;3.26;63.04
36454;BME280;22478;51.740;-1.314;2023-01-28T04:19:36;101889.11;;;2.96;67.77
36454;BME280;22478;51.740;-1.314;2023-01-28T04:22:04;101887.09;;;2.97;63.84
36454;BME280;22478;51.740;-1.314;2023-01-28T04:24:32;101875.57;;;4.67;61.97
36454;BME280;22478;51.740;-1.314;2023-01-28T04:26:59;101873.56;;;3.62;62.32
36454;BME280;22478;51.740;-1.314;2023-01-28T04:29:26;101864.54;;;3.96;63.32
36454;BME280;22478;51.740;-1.314;2023-01-28T04:31:54;101863.51;;;4.49;63.51
36454;BME280;22478;51.740;-1.314;2023-01-28T04:34:20;101863.08;;;3.55;63.63
36454;BME280;22478;51.740;-1.314;2023-01-28T04:36:48;101862.60;;;3.71;64.45
36454;BME280;22478;51.740;-1.314;2023-01-28T04:39:15;101859.09;;;3.20;64.15
36454;BME280;22478;51.740;-1.314;2023-01-28T04:41:42;101852.19;;;3.38;63.08
36454;BME280;22478;51.740;-1.314;2023-01-28T04:44:10;101856.66;;;2.53;63.20
36454;BME280;22478;51.740;-1.314;2023-01-28T04:46:37;101864.90;;;3.67;62.88
36454;BME280;22478;51.740;-1.314;2023-01-28T04:49:05;101869.12;;;3.59;62.52
36454;BME280;22478;51.740;-1.314;2023-01-28T04:51:32;101873.40;;;3.43;62.15
36454;BME280;22478;51.740;-1.314;2023-01-28T04:53:59;101876.98;;;3.17;63.22
36454;BME280;22478;51.740;-1.314;2023-01-28T04:56:27;101872.45;;;3.60;61.31
36454;BME280;22478;51.740;-1.314;2023-01-28T04:58:54;101883.23;;;-0.70;78.89
36454;BME280;22478;51.740;-1.314;2023-01-28T05:01:21;101877.00;;;2.73;67.88
36454;BME280;22478;51.740;-1.314;2023-01-28T05:03:48;101888.27;;;1.84;71.31
36454;BME280;22478;51.740;-1.314;2023-01-28T05:06:15;101884.68;;;3.79;65.37
36454;BME280;22478;51.740;-1.314;2023-01-28T05:08:42;101890.63;;;3.64;64.88
36454;BME280;22478;51.740;-1.314;2023-01-28T05:11:10;101896.59;;;2.72;65.10
36454;BME280;22478;51.740;-1.314;2023-01-28T05:13:37;101890.42;;;3.78;64.80
36454;BME280;22478;51.740;-1.314;2023-01-28T05:16:06;101887.90;;;3.52;64.25
36454;BME280;22478;51.740;-1.314;2023-01-28T05:18:33;101894.92;;;3.84;61.91
36454;BME280;22478;51.740;-1.314;2023-01-28T05:21:00;101892.97;;;3.81;61.89
36454;BME280;22478;51.740;-1.314;2023-01-28T05:23:28;101889.56;;;2.27;65.19
36454;BME280;22478;51.740;-1.314;2023-01-28T05:25:55;101891.01;;;3.63;63.78
36454;BME280;22478;51.740;-1.314;2023-01-28T05:28:23;101886.96;;;2.24;69.11
36454;BME280;22478;51.740;-1.314;2023-01-28T05:30:50;101882.74;;;3.80;63.83
36454;BME280;22478;51.740;-1.314;2023-01-28T05:33:19;101879.66;;;4.12;61.86
36454;BME280;22478;51.740;-1.314;2023-01-28T05:35:46;101889.43;;;1.78;68.36
36454;BME280;22478;51.740;-1.314;2023-01-28T05:38:13;101899.13;;;0.70;72.71
36454;BME280;22478;51.740;-1.314;2023-01-28T05:40:40;101895.36;;;2.84;70.27
36454;BME280;22478;51.740;-1.314;2023-01-28T05:43:07;101897.16;;;3.47;65.90
36454;BME280;22478;51.740;-1.314;2023-01-28T05:45:34;101893.82;;;3.32;66.87
36454;BME280;22478;51.740;-1.314;2023-01-28T05:48:01;101893.07;;;3.43;65.82
36454;BME280;22478;51.740;-1.314;2023-01-28T05:50:27;101894.46;;;3.59;63.98
36454;BME280;22478;51.740;-1.314;2023-01-28T05:52:54;101898.58;;;3.86;63.79
36454;BME280;22478;51.740;-1.314;2023-01-28T05:55:21;101900.01;;;3.91;64.55
36454;BME280;22478;51.740;-1.314;2023-01-28T05:57:49;101894.92;;;4.56;63.82
36454;BME280;22478;51.740;-1.314;2023-01-28T06:00:17;101891.98;;;2.41;66.72
36454;BME280;22478;51.740;-1.314;2023-01-28T06:02:45;101899.48;;;3.16;65.09
36454;BME280;22478;51.740;-1.314;2023-01-28T06:05:12;101907.38;;;3.27;65.16
36454;BME280;22478;51.740;-1.314;2023-01-28T06:07:43;101905.95;;;2.26;68.00
36454;BME280;22478;51.740;-1.314;2023-01-28T06:10:11;101905.75;;;3.94;63.59
36454;BME280;22478;51.740;-1.314;2023-01-28T06:12:39;101899.82;;;3.71;64.33
36454;BME280;22478;51.740;-1.314;2023-01-28T06:15:07;101897.21;;;3.93;63.74
36454;BME280;22478;51.740;-1.314;2023-01-28T06:17:34;101901.47;;;4.24;62.53
36454;BME280;22478;51.740;-1.314;2023-01-28T06:20:02;101898.61;;;4.56;61.30
36454;BME280;22478;51.740;-1.314;2023-01-28T06:22:30;101902.61;;;3.69;64.85
36454;BME280;22478;51.740;-1.314;2023-01-28T06:24:56;101911.84;;;1.99;70.70
36454;BME280;22478;51.740;-1.314;2023-01-28T06:27:24;101898.91;;;2.62;71.90
36454;BME280;22478;51.740;-1.314;2023-01-28T06:29:51;101908.68;;;0.81;73.96
36454;BME280;22478;51.740;-1.314;2023-01-28T06:32:18;101906.18;;;-0.47;82.84
36454;BME280;22478;51.740;-1.314;2023-01-28T06:34:46;101904.85;;;0.32;84.55
36454;BME280;22478;51.740;-1.314;2023-01-28T06:37:13;101918.91;;;-2.48;96.22
36454;BME280;22478;51.740;-1.314;2023-01-28T06:39:40;101926.05;;;-1.93;100.00
36454;BME280;22478;51.740;-1.314;2023-01-28T06:42:07;101930.29;;;-2.62;100.00
36454;BME280;22478;51.740;-1.314;2023-01-28T06:44:35;101923.71;;;-2.05;100.00
36454;BME280;22478;51.740;-1.314;2023-01-28T06:47:02;101916.78;;;0.59;86.22
36454;BME280;22478;51.740;-1.314;2023-01-28T06:49:29;101923.72;;;-0.70;85.79
36454;BME280;22478;51.740;-1.314;2023-01-28T06:51:57;101923.26;;;-2.16;94.07
36454;BME280;22478;51.740;-1.314;2023-01-28T06:54:24;101916.56;;;0.66;85.25
36454;BME280;22478;51.740;-1.314;2023-01-28T06:56:51;101914.68;;;1.61;76.31
36454;BME280;22478;51.740;-1.314;2023-01-28T06:59:19;101913.81;;;2.12;73.75
36454;BME280;22478;51.740;-1.314;2023-01-28T07:01:46;101910.19;;;3.12;71.95
36454;BME280;22478;51.740;-1.314;2023-01-28T07:04:13;101915.00;;;3.05;71.71
36454;BME280;22478;51.740;-1.314;2023-01-28T07:06:40;101920.39;;;1.46;74.17
36454;BME280;22478;51.740;-1.314;2023-01-28T07:09:08;101904.46;;;2.32;70.02
36454;BME280;22478;51.740;-1.314;2023-01-28T07:11:36;101898.19;;;3.61;67.62
36454;BME280;22478;51.740;-1.314;2023-01-28T07:14:03;101895.27;;;3.38;69.23
36454;BME280;22478;51.740;-1.314;2023-01-28T07:16:31;101899.90;;;3.72;69.20
36454;BME280;22478;51.740;-1.314;2023-01-28T07:18:58;101895.03;;;3.74;67.09
36454;BME280;22478;51.740;-1.314;2023-01-28T07:21:25;101893.57;;;3.95;67.29
36454;BME280;22478;51.740;-1.314;2023-01-28T07:23:52;101898.33;;;4.30;66.58
36454;BME280;22478;51.740;-1.314;2023-01-28T07:26:19;101896.43;;;3.87;63.76
36454;BME280;22478;51.740;-1.314;2023-01-28T07:28:47;101916.03;;;-0.30;77.22
36454;BME280;22478;51.740;-1.314;2023-01-28T07:31:14;101919.26;;;1.34;76.88
36454;BME280;22478;51.740;-1.314;2023-01-28T07:33:41;101914.35;;;1.93;76.00
36454;BME280;22478;51.740;-1.314;2023-01-28T07:36:08;101898.61;;;2.80;69.45
36454;BME280;22478;51.740;-1.314;2023-01-28T07:38:35;101904.93;;;3.18;68.70
36454;BME280;22478;51.740;-1.314;2023-01-28T07:41:03;101908.42;;;3.45;69.07
36454;BME280;22478;51.740;-1.314;2023-01-28T07:43:30;101904.05;;;3.60;68.20
36454;BME280;22478;51.740;-1.314;2023-01-28T07:45:59;101900.60;;;3.38;65.06
36454;BME280;22478;51.740;-1.314;2023-01-28T07:48:27;101899.72;;;3.21;68.36
36454;BME280;22478;51.740;-1.314;2023-01-28T07:50:57;101897.27;;;3.54;67.15
36454;BME280;22478;51.740;-1.314;2023-01-28T07:53:24;101903.17;;;4.08;66.63
36454;BME280;22478;51.740;-1.314;2023-01-28T07:55:57;101902.30;;;3.67;66.79
36454;BME280;22478;51.740;-1.314;2023-01-28T07:58:25;101900.12;;;3.70;66.17
36454;BME280;22478;51.740;-1.314;2023-01-28T08:00:56;101908.18;;;4.38;65.80
36454;BME280;22478;51.740;-1.314;2023-01-28T08:03:24;101913.52;;;4.34;65.62
36454;BME280;22478;51.740;-1.314;2023-01-28T08:05:52;101919.50;;;1.76;72.74
36454;BME280;22478;51.740;-1.314;2023-01-28T08:08:20;101916.94;;;2.10;72.61
36454;BME280;22478;51.740;-1.314;2023-01-28T08:10:47;101926.37;;;2.11;74.76
36454;BME280;22478;51.740;-1.314;2023-01-28T08:13:15;101935.07;;;-0.17;85.11
36454;BME280;22478;51.740;-1.314;2023-01-28T08:15:43;101938.68;;;-0.40;89.64
36454;BME280;22478;51.740;-1.314;2023-01-28T08:18:11;101944.29;;;-0.63;87.34
36454;BME280;22478;51.740;-1.314;2023-01-28T08:20:40;101942.62;;;0.42;83.20
36454;BME280;22478;51.740;-1.314;2023-01-28T08:23:12;101954.49;;;-2.02;93.35
36454;BME280;22478;51.740;-1.314;2023-01-28T08:25:39;101956.14;;;-1.60;98.49
36454;BME280;22478;51.740;-1.314;2023-01-28T08:28:07;101964.70;;;-0.26;94.89
36454;BME280;22478;51.740;-1.314;2023-01-28T08:30:35;101973.25;;;-2.08;100.00
36454;BME280;22478;51.740;-1.314;2023-01-28T08:33:03;101969.38;;;-0.90;100.00
36454;BME280;22478;51.740;-1.314;2023-01-28T08:35:31;101966.62;;;1.50;89.71
36454;BME280;22478;51.740;-1.314;2023-01-28T08:38:00;101968.06;;;-1.42;100.00
36454;BME280;22478;51.740;-1.314;2023-01-28T08:40:29;101981.24;;;-3.09;100.00
36454;BME280;22478;51.740;-1.314;2023-01-28T08:42:56;101985.06;;;-3.19;100.00
36454;BME280;22478;51.740;-1.314;2023-01-28T08:45:25;101989.99;;;-4.80;100.00
36454;BME280;22478;51.740;-1.314;2023-01-28T08:47:55;101981.20;;;0.15;100.00
36454;BME280;22478;51.740;-1.314;2023-01-28T08:50:24;101986.56;;;-1.47;100.00
36454;BME280;22478;51.740;-1.314;2023-01-28T08:52:55;102002.71;;;-2.52;100.00
36454;BME280;22478;51.740;-1.314;2023-01-28T08:55:24;102004.49;;;-2.75;100.00
36454;BME280;22478;51.740;-1.314;2023-01-28T08:57:51;101996.59;;;-0.99;100.00
36454;BME280;22478;51.740;-1.314;2023-01-28T09:00:19;102006.28;;;-2.55;100.00
36454;BME280;22478;51.740;-1.314;2023-01-28T09:02:50;102007.69;;;-3.60;100.00
36454;BME280;22478;51.740;-1.314;2023-01-28T09:05:18;102016.20;;;-1.74;100.00
36454;BME280;22478;51.740;-1.314;2023-01-28T09:07:46;102020.50;;;-4.41;100.00
36454;BME280;22478;51.740;-1.314;2023-01-28T09:10:14;101998.74;;;-2.81;100.00
36454;BME280;22478;51.740;-1.314;2023-01-28T09:12:41;101973.47;;;-1.02;100.00
36454;BME280;22478;51.740;-1.314;2023-01-28T09:15:10;101961.60;;;0.43;98.71
36454;BME280;22478;51.740;-1.314;2023-01-28T09:17:37;101971.50;;;-0.78;99.93
36454;BME280;22478;51.740;-1.314;2023-01-28T09:20:06;101985.66;;;-2.16;100.00
36454;BME280;22478;51.740;-1.314;2023-01-28T09:22:33;101973.62;;;0.47;94.65
36454;BME280;22478;51.740;-1.314;2023-01-28T09:25:01;101970.75;;;1.17;83.65
36454;BME280;22478;51.740;-1.314;2023-01-28T09:27:28;101971.83;;;1.94;82.57
36454;BME280;22478;51.740;-1.314;2023-01-28T09:29:56;101968.91;;;1.07;80.35
36454;BME280;22478;51.740;-1.314;2023-01-28T09:32:23;101957.57;;;2.48;78.28
36454;BME280;22478;51.740;-1.314;2023-01-28T09:34:50;101967.06;;;-0.12;80.92
36454;BME280;22478;51.740;-1.314;2023-01-28T09:37:17;101959.50;;;2.93;80.18
36454;BME280;22478;51.740;-1.314;2023-01-28T09:39:44;101962.72;;;1.86;82.53
36454;BME280;22478;51.740;-1.314;2023-01-28T09:42:24;101962.49;;;2.41;80.24
36454;BME280;22478;51.740;-1.314;2023-01-28T09:45:01;101960.73;;;-0.26;93.01
36454;BME280;22478;51.740;-1.314;2023-01-28T09:47:36;101952.38;;;1.59;82.61
36454;BME280;22478;51.740;-1.314;2023-01-28T09:50:08;101952.40;;;2.01;78.28
36454;BME280;22478;51.740;-1.314;2023-01-28T09:52:41;101955.50;;;-0.68;91.08
36454;BME280;22478;51.740;-1.314;2023-01-28T09:55:28;101950.02;;;1.07;81.73
36454;BME280;22478;51.740;-1.314;2023-01-28T09:57:58;101938.49;;;0.23;81.73
36454;BME280;22478;51.740;-1.314;2023-01-28T10:00:30;101933.69;;;2.22;78.24
36454;BME280;22478;51.740;-1.314;2023-01-28T10:03:10;101937.17;;;2.23;78.35
36454;BME280;22478;51.740;-1.314;2023-01-28T10:05:45;101921.53;;;2.66;75.08
36454;BME280;22478;51.740;-1.314;2023-01-28T10:08:25;101914.37;;;2.76;74.97
36454;BME280;22478;51.740;-1.314;2023-01-28T10:11:02;101924.69;;;3.02;74.72
36454;BME280;22478;51.740;-1.314;2023-01-28T10:13:40;101931.01;;;3.29;73.14
36454;BME280;22478;51.740;-1.314;2023-01-28T10:16:20;101937.73;;;2.77;75.51
36454;BME280;22478;51.740;-1.314;2023-01-28T10:18:54;101936.65;;;3.34;74.04
36454;BME280;22478;51.740;-1.314;2023-01-28T10:21:26;101935.56;;;2.40;74.38
36454;BME280;22478;51.740;-1.314;2023-01-28T10:24:00;101922.31;;;3.31;75.78
36454;BME280;22478;51.740;-1.314;2023-01-28T10:26:32;101923.69;;;1.18;85.15
36454;BME280;22478;51.740;-1.314;2023-01-28T10:29:04;101912.71;;;3.02;77.03
36454;BME280;22478;51.740;-1.314;2023-01-28T10:31:37;101919.90;;;1.68;81.92
36454;BME280;22478;51.740;-1.314;2023-01-28T10:34:08;101915.69;;;3.30;72.85
36454;BME280;22478;51.740;-1.314;2023-01-28T10:36:35;101927.66;;;1.86;82.67
36454;BME280;22478;51.740;-1.314;2023-01-28T10:39:03;101913.34;;;2.82;75.51
36454;BME280;22478;51.740;-1.314;2023-01-28T10:41:31;101915.93;;;1.38;79.47
36454;BME280;22478;51.740;-1.314;2023-01-28T10:43:58;101904.61;;;1.46;78.63
36454;BME280;22478;51.740;-1.314;2023-01-28T10:46:29;101896.94;;;2.07;77.15
36454;BME280;22478;51.740;-1.314;2023-01-28T10:49:03;101903.15;;;0.23;90.71
36454;BME280;22478;51.740;-1.314;2023-01-28T10:51:36;101905.22;;;-1.29;94.55
36454;BME280;22478;51.740;-1.314;2023-01-28T10:54:18;101913.61;;;-2.31;100.00
36454;BME280;22478;51.740;-1.314;2023-01-28T10:56:46;101904.67;;;2.45;84.35
36454;BME280;22478;51.740;-1.314;2023-01-28T10:59:20;101901.39;;;2.46;79.40
36454;BME280;22478;51.740;-1.314;2023-01-28T11:01:50;101910.78;;;1.50;84.15
36454;BME280;22478;51.740;-1.314;2023-01-28T11:04:22;101900.27;;;2.63;77.66
36454;BME280;22478;51.740;-1.314;2023-01-28T11:06:52;101911.33;;;-0.32;95.18
36454;BME280;22478;51.740;-1.314;2023-01-28T11:09:21;101910.13;;;0.38;100.00
36454;BME280;22478;51.740;-1.314;2023-01-28T11:11:48;101917.85;;;-3.57;100.00
36454;BME280;22478;51.740;-1.314;2023-01-28T11:14:21;101918.48;;;-1.74;100.00
36454;BME280;22478;51.740;-1.314;2023-01-28T11:16:50;101908.14;;;1.15;98.13
36454;BME280;22478;51.740;-1.314;2023-01-28T11:19:20;101909.40;;;0.82;91.87
36454;BME280;22478;51.740;-1.314;2023-01-28T11:21:52;101918.75;;;-1.39;100.00
36454;BME280;22478;51.740;-1.314;2023-01-28T11:24:24;101930.89;;;-2.84;100.00
36454;BME280;22478;51.740;-1.314;2023-01-28T11:26:54;101931.61;;;-1.23;100.00
36454;BME280;22478;51.740;-1.314;2023-01-28T11:29:26;101925.68;;;0.75;100.00
36454;BME280;22478;51.740;-1.314;2023-01-28T11:31:54;101917.01;;;2.46;88.38
36454;BME280;22478;51.740;-1.314;2023-01-28T11:34:26;101911.43;;;1.70;84.76
36454;BME280;22478;51.740;-1.314;2023-01-28T11:36:59;101916.10;;;0.19;95.90
36454;BME280;22478;51.740;-1.314;2023-01-28T11:39:28;101918.19;;;-1.84;100.00
36454;BME280;22478;51.740;-1.314;2023-01-28T11:42:03;101913.59;;;1.55;95.30
36454;BME280;22478;51.740;-1.314;2023-01-28T11:44:37;101907.76;;;2.31;87.64
36454;BME280;22478;51.740;-1.314;2023-01-28T11:47:18;101908.47;;;2.67;88.77
36454;BME280;22478;51.740;-1.314;2023-01-28T11:50:04;101909.79;;;4.95;77.94
36454;BME280;22478;51.740;-1.314;2023-01-28T11:52:46;101910.24;;;2.53;92.30
36454;BME280;22478;51.740;-1.314;2023-01-28T11:55:26;101913.15;;;0.66;94.95
36454;BME280;22478;51.740;-1.314;2023-01-28T11:58:08;101911.58;;;0.17;99.58
36454;BME280;22478;51.740;-1.314;2023-01-28T12:00:45;101916.90;;;-2.23;100.00
36454;BME280;22478;51.740;-1.314;2023-01-28T12:03:30;101912.30;;;1.20;93.07
36454;BME280;22478;51.740;-1.314;2023-01-28T12:06:16;101910.91;;;0.62;100.00
36454;BME280;22478;51.740;-1.314;2023-01-28T12:08:51;101916.47;;;-0.98;100.00
36454;BME280;22478;51.740;-1.314;2023-01-28T12:11:31;101916.51;;;-0.32;100.00
36454;BME280;22478;51.740;-1.314;2023-01-28T12:14:07;101922.36;;;-0.64;100.00
36454;BME280;22478;51.740;-1.314;2023-01-28T12:16:48;101901.65;;;2.77;91.21
36454;BME280;22478;51.740;-1.314;2023-01-28T12:19:30;101916.54;;;-3.20;100.00
36454;BME280;22478;51.740;-1.314;2023-01-28T12:22:13;101923.84;;;-2.51;100.00
36454;BME280;22478;51.740;-1.314;2023-01-28T12:24:54;101905.94;;;0.94;100.00
36454;BME280;22478;51.740;-1.314;2023-01-28T12:27:33;101906.29;;;1.19;100.00
36454;BME280;22478;51.740;-1.314;2023-01-28T12:30:16;101921.27;;;-2.57;100.00
36454;BME280;22478;51.740;-1.314;2023-01-28T12:32:58;101906.98;;;2.20;100.00
36454;BME280;22478;51.740;-1.314;2023-01-28T12:35:39;101914.13;;;-2.53;100.00
36454;BME280;22478;51.740;-1.314;2023-01-28T12:38:13;101911.83;;;-2.21;100.00
36454;BME280;22478;51.740;-1.314;2023-01-28T12:40:53;101904.28;;;-2.63;100.00
36454;BME280;22478;51.740;-1.314;2023-01-28T12:43:28;101898.55;;;-1.97;100.00
36454;BME280;22478;51.740;-1.314;2023-01-28T12:46:03;101896.86;;;-1.29;100.00
36454;BME280;22478;51.740;-1.314;2023-01-28T12:48:40;101879.86;;;1.26;100.00
36454;BME280;22478;51.740;-1.314;2023-01-28T12:51:13;101875.61;;;-2.82;100.00
36454;BME280;22478;51.740;-1.314;2023-01-28T12:53:45;101875.99;;;-1.37;100.00
36454;BME280;22478;51.740;-1.314;2023-01-28T12:56:17;101863.47;;;2.66;100.00
36454;BME280;22478;51.740;-1.314;2023-01-28T12:58:49;101864.80;;;1.03;100.00
36454;BME280;22478;51.740;-1.314;2023-01-28T13:02:13;101872.73;;;-1.30;100.00